Time;durP1;ratioP1;P1;durP2;ratioP2;P2;SDS_P1;SDS_P2;PMS_P1;PMS_P2;Temp;Humidity;BMP_temperature;BMP_pressure;BME280_temperature;BME280_humidity;BME280_pressure;Samples;Min_cycle;Max_cycle;Signal;HPM_P1;HPM_P2
2023/10/01 00:00:14;;;;;;;16.15;9.02;;;;;;;11.54;100.00;102319.59;5026720;28;20041;-73
2023/10/01 00:02:41;;;;;;;14.40;7.85;;;;;;;11.51;100.00;102317.88;5027695;28;20068;-72
2023/10/01 00:05:08;;;;;;;15.07;8.73;;;;;;;11.52;100.00;102316.94;5026067;28;20493;-74
2023/10/01 00:07:37;;;;;;;15.93;8.63;;;;;;;11.47;100.00;102314.47;5027170;28;20465;-73
2023/10/01 00:10:10;;;;;;;12.38;8.20;;;;;;;11.48;100.00;102321.66;5025234;28;20041;-73
2023/10/01 00:12:40;;;;;;;16.25;9.35;;;;;;;11.46;100.00;102319.97;5027867;28;20504;-73
2023/10/01 00:15:10;;;;;;;15.70;9.15;;;;;;;11.43;100.00;102323.75;5027420;28;20116;-73
2023/10/01 00:17:37;;;;;;;18.45;10.68;;;;;;;11.41;100.00;102319.34;5040574;28;20592;-73
2023/10/01 00:20:14;;;;;;;19.02;8.77;;;;;;;11.40;100.00;102320.31;5030896;28;20025;-73
2023/10/01 00:22:39;;;;;;;18.08;9.55;;;;;;;11.39;100.00;102316.69;5025992;28;20129;-72
2023/10/01 00:25:06;;;;;;;18.38;9.40;;;;;;;11.39;100.00;102322.16;5026965;28;20225;-73
2023/10/01 00:27:32;;;;;;;18.05;9.77;;;;;;;11.40;100.00;102323.91;5033852;28;20048;-73
2023/10/01 00:29:57;;;;;;;17.00;8.13;;;;;;;11.42;100.00;102324.72;5027552;28;20037;-72
2023/10/01 00:32:22;;;;;;;17.70;8.90;;;;;;;11.41;100.00;102322.94;5026011;28;20057;-73
2023/10/01 00:34:48;;;;;;;18.83;8.77;;;;;;;11.44;100.00;102319.19;5034882;28;20017;-72
2023/10/01 00:37:13;;;;;;;14.90;8.55;;;;;;;11.43;100.00;102315.59;5045701;28;20122;-74
2023/10/01 00:39:39;;;;;;;14.10;9.15;;;;;;;11.46;100.00;102314.53;5044351;28;20140;-73
2023/10/01 00:42:06;;;;;;;14.27;8.60;;;;;;;11.50;100.00;102318.84;5027345;28;20349;-73
2023/10/01 00:44:34;;;;;;;18.15;8.98;;;;;;;11.49;100.00;102323.44;5032597;28;20049;-73
2023/10/01 00:47:03;;;;;;;18.23;8.48;;;;;;;11.45;100.00;102313.66;5024919;28;20465;-73
2023/10/01 00:49:28;;;;;;;16.88;8.65;;;;;;;11.44;100.00;102311.88;5040483;28;20075;-73
2023/10/01 00:51:54;;;;;;;20.10;8.90;;;;;;;11.40;100.00;102298.50;5040476;28;20041;-73
2023/10/01 00:54:19;;;;;;;15.80;8.70;;;;;;;11.37;100.00;102293.22;5025413;28;20397;-73
2023/10/01 00:56:44;;;;;;;17.35;8.70;;;;;;;11.39;100.00;102291.31;5030962;28;20195;-73
2023/10/01 00:59:10;;;;;;;14.85;8.32;;;;;;;11.39;100.00;102291.31;5025696;28;20028;-73
2023/10/01 01:01:39;;;;;;;14.10;8.52;;;;;;;11.37;100.00;102285.03;5025482;28;20045;-73
2023/10/01 01:04:09;;;;;;;12.43;7.63;;;;;;;11.36;100.00;102280.56;5026152;28;20788;-71
2023/10/01 01:06:37;;;;;;;19.30;7.97;;;;;;;11.32;100.00;102271.66;5026034;28;20535;-72
2023/10/01 01:09:02;;;;;;;14.95;7.00;;;;;;;11.31;100.00;102269.91;5031517;28;20041;-74
2023/10/01 01:11:27;;;;;;;12.63;7.25;;;;;;;11.33;100.00;102278.88;5025375;28;20520;-73
2023/10/01 01:13:53;;;;;;;13.20;7.38;;;;;;;11.31;100.00;102272.63;5026312;28;20038;-73
2023/10/01 01:16:19;;;;;;;14.27;7.03;;;;;;;11.30;100.00;102268.13;5024551;28;20035;-73
2023/10/01 01:18:51;;;;;;;14.02;7.03;;;;;;;11.27;100.00;102265.56;5009795;28;20501;-72
2023/10/01 01:21:17;;;;;;;13.43;7.00;;;;;;;11.30;100.00;102265.41;5028574;28;20037;-73
2023/10/01 01:23:45;;;;;;;13.82;7.88;;;;;;;11.32;100.00;102270.78;5011853;28;20136;-73
2023/10/01 01:26:13;;;;;;;14.57;7.25;;;;;;;11.30;100.00;102268.13;5028630;28;20389;-74
2023/10/01 01:28:41;;;;;;;10.93;6.47;;;;;;;11.30;100.00;102275.44;5028972;28;20493;-72
2023/10/01 01:31:08;;;;;;;13.50;7.38;;;;;;;11.30;100.00;102272.72;5031054;28;20049;-73
2023/10/01 01:33:40;;;;;;;14.75;7.43;;;;;;;11.26;100.00;102265.66;5039463;28;20044;-73
2023/10/01 01:36:09;;;;;;;14.00;7.33;;;;;;;11.21;100.00;102261.31;5030538;28;20482;-74
2023/10/01 01:38:37;;;;;;;15.02;7.22;;;;;;;11.21;100.00;102265.91;5030407;28;20493;-73
2023/10/01 01:41:03;;;;;;;13.52;6.90;;;;;;;11.18;100.00;102264.19;5028398;28;20112;-73
2023/10/01 01:43:32;;;;;;;14.57;6.90;;;;;;;11.18;100.00;102264.19;5032857;28;20040;-73
2023/10/01 01:46:08;;;;;;;12.00;6.80;;;;;;;11.19;100.00;102265.06;5029182;28;20559;-74
2023/10/01 01:48:40;;;;;;;11.50;6.80;;;;;;;11.18;100.00;102266.94;5029189;28;20047;-74
2023/10/01 01:51:06;;;;;;;11.32;6.63;;;;;;;11.16;100.00;102260.69;5043330;28;20029;-74
2023/10/01 01:53:35;;;;;;;11.73;7.00;;;;;;;11.17;100.00;102254.28;5028068;28;20017;-73
2023/10/01 01:56:08;;;;;;;10.57;6.50;;;;;;;11.18;100.00;102255.16;5040013;28;20045;-73
2023/10/01 01:58:35;;;;;;;12.88;6.95;;;;;;;11.17;100.00;102262.44;5036564;28;20037;-73
2023/10/01 02:01:23;;;;;;;13.27;6.15;;;;;;;11.16;100.00;102257.97;5048138;28;20029;-75
2023/10/01 02:03:51;;;;;;;14.13;7.65;;;;;;;11.16;100.00;102262.53;5047005;28;20045;-73
2023/10/01 02:06:26;;;;;;;17.27;7.10;;;;;;;11.15;100.00;102258.06;5042019;28;20045;-73
2023/10/01 02:08:57;;;;;;;12.38;7.47;;;;;;;11.11;100.00;102249.16;5027747;28;20038;-74
2023/10/01 02:11:23;;;;;;;11.48;6.15;;;;;;;11.07;100.00;102249.41;5010885;28;20552;-73
2023/10/01 02:13:51;;;;;;;16.00;7.20;;;;;;;11.06;100.00;102253.97;5027711;28;20068;-73
2023/10/01 02:19:14;;;;;;;11.43;6.35;;;;;;;11.03;100.00;102242.34;5044083;28;20038;-73
2023/10/01 02:21:52;;;;;;;9.57;5.30;;;;;;;11.03;100.00;102243.22;5029126;28;20045;-74
2023/10/01 02:24:37;;;;;;;11.77;6.53;;;;;;;11.00;100.00;102235.19;5028924;28;20580;-74
2023/10/01 02:27:04;;;;;;;8.82;5.95;;;;;;;10.96;100.00;102236.34;5027281;28;20431;-73
2023/10/01 02:29:31;;;;;;;13.23;6.43;;;;;;;10.96;100.00;102239.94;5028666;28;20033;-72
2023/10/01 02:31:57;;;;;;;14.77;6.47;;;;;;;10.95;100.00;102232.72;5028503;28;20481;-73
2023/10/01 02:34:29;;;;;;;10.25;6.35;;;;;;;10.91;100.00;102228.41;5027723;28;20033;-74
2023/10/01 02:36:56;;;;;;;12.13;5.82;;;;;;;10.93;100.00;102228.31;5027437;28;20065;-73
2023/10/01 02:39:27;;;;;;;11.45;6.13;;;;;;;10.88;100.00;102223.13;5028502;28;20091;-73
2023/10/01 02:42:09;;;;;;;12.98;6.22;;;;;;;10.89;100.00;102229.44;5029274;28;20458;-73
2023/10/01 02:44:39;;;;;;;14.20;6.03;;;;;;;10.88;100.00;102236.72;5033060;28;20036;-74
2023/10/01 02:47:18;;;;;;;10.95;6.13;;;;;;;10.85;100.00;102245.03;5026745;28;20429;-72
2023/10/01 02:49:52;;;;;;;13.38;5.80;;;;;;;10.85;100.00;102246.88;5028688;28;20556;-72
2023/10/01 02:52:31;;;;;;;13.88;5.88;;;;;;;10.83;100.00;102246.09;5047046;28;20037;-73
2023/10/01 02:55:00;;;;;;;10.65;6.53;;;;;;;10.86;100.00;102256.81;5048171;28;20071;-74
2023/10/01 02:57:26;;;;;;;16.58;5.53;;;;;;;10.87;100.00;102253.16;5039156;28;20075;-73
2023/10/01 03:02:49;;;;;;;11.40;5.68;;;;;;;10.83;100.00;102249.69;5027159;28;20060;-73
2023/10/01 03:05:18;;;;;;;14.30;5.95;;;;;;;10.83;100.00;102244.25;5028374;28;20041;-73
2023/10/01 03:07:45;;;;;;;11.90;6.50;;;;;;;10.82;100.00;102247.03;5028218;28;20713;-72
2023/10/01 03:10:29;;;;;;;10.85;5.53;;;;;;;10.78;100.00;102240.88;5026681;28;20153;-72
2023/10/01 03:12:57;;;;;;;12.13;5.60;;;;;;;10.80;100.00;102236.22;5026084;28;20037;-73
2023/10/01 03:15:24;;;;;;;12.10;6.22;;;;;;;10.79;100.00;102231.75;5047991;28;20040;-73
2023/10/01 03:17:57;;;;;;;13.48;6.75;;;;;;;10.81;100.00;102232.53;5046005;28;20152;-73
2023/10/01 03:23:25;;;;;;;13.07;6.30;;;;;;;10.81;100.00;102234.38;5027614;28;20122;-73
2023/10/01 03:28:27;;;;;;;12.40;6.25;;;;;;;10.81;100.00;102237.13;5037742;28;20041;-73
2023/10/01 03:31:01;;;;;;;13.13;5.90;;;;;;;10.77;100.00;102230.06;5028089;28;20033;-72
2023/10/01 03:33:30;;;;;;;12.43;6.43;;;;;;;10.79;100.00;102234.47;5027169;28;20511;-74
2023/10/01 03:35:57;;;;;;;13.13;6.20;;;;;;;10.81;100.00;102237.13;5027879;28;20072;-73
2023/10/01 03:38:27;;;;;;;10.18;6.05;;;;;;;10.81;100.00;102240.72;5027259;28;20037;-73
2023/10/01 03:41:00;;;;;;;17.50;6.65;;;;;;;10.82;100.00;102230.69;5027617;28;20033;-74
2023/10/01 03:43:35;;;;;;;11.27;6.07;;;;;;;10.82;100.00;102233.41;5030468;28;20041;-73
2023/10/01 03:49:00;;;;;;;8.98;5.20;;;;;;;10.81;100.00;102228.94;5033157;28;20160;-74
2023/10/01 03:51:29;;;;;;;14.77;6.43;;;;;;;10.81;100.00;102238.00;5027617;28;20033;-76
2023/10/01 03:54:06;;;;;;;10.55;5.75;;;;;;;10.79;100.00;102229.03;5027230;28;20029;-74
2023/10/01 03:56:33;;;;;;;12.00;5.90;;;;;;;10.81;100.00;102228.94;5026581;28;20208;-72
2023/10/01 03:58:59;;;;;;;11.80;5.63;;;;;;;10.78;100.00;102227.28;5026835;28;20044;-75
2023/10/01 04:01:26;;;;;;;17.70;6.75;;;;;;;10.82;100.00;102241.59;5027082;28;20028;-74
2023/10/01 04:03:52;;;;;;;10.80;6.10;;;;;;;10.79;100.00;102229.03;5027238;28;20056;-73
2023/10/01 04:06:21;;;;;;;12.77;5.88;;;;;;;10.77;100.00;102227.34;5026235;28;20456;-73
2023/10/01 04:08:47;;;;;;;11.38;5.93;;;;;;;10.78;100.00;102231.84;5026948;28;20038;-73
2023/10/01 04:11:15;;;;;;;10.30;6.40;;;;;;;10.78;100.00;102226.41;5026852;28;20504;-73
2023/10/01 04:13:41;;;;;;;13.35;6.55;;;;;;;10.80;100.00;102221.75;5030124;28;20048;-71
2023/10/01 04:16:14;;;;;;;12.13;6.05;;;;;;;10.80;100.00;102221.75;5027580;28;20025;-69
2023/10/01 04:18:42;;;;;;;14.73;5.72;;;;;;;10.79;100.00;102220.88;5027397;28;20454;-69
2023/10/01 04:23:41;;;;;;;16.05;6.40;;;;;;;10.81;100.00;102228.94;5026585;28;20114;-69
2023/10/01 04:26:08;;;;;;;14.07;6.20;;;;;;;10.81;100.00;102218.94;5026687;28;20112;-71
2023/10/01 04:28:44;;;;;;;12.57;6.85;;;;;;;10.83;100.00;102227.91;5026800;28;20488;-70
2023/10/01 04:31:14;;;;;;;12.60;5.95;;;;;;;10.84;100.00;102220.63;5027917;28;20034;-70
2023/10/01 04:33:42;;;;;;;11.57;6.10;;;;;;;10.80;100.00;102219.03;5027205;28;20068;-69
2023/10/01 04:36:11;;;;;;;11.18;6.07;;;;;;;10.84;100.00;102218.78;5027745;28;20029;-70
2023/10/01 04:38:41;;;;;;;12.02;6.13;;;;;;;10.84;100.00;102221.50;5026711;28;20041;-69
2023/10/01 04:41:12;;;;;;;18.05;6.32;;;;;;;10.81;100.00;102210.75;5026825;28;20038;-69
2023/10/01 04:43:51;;;;;;;12.25;5.68;;;;;;;10.80;100.00;102210.84;5027044;28;20533;-69
2023/10/01 04:46:20;;;;;;;16.15;5.82;;;;;;;10.80;100.00;102219.91;5025799;28;20065;-69
2023/10/01 04:48:47;;;;;;;17.05;6.47;;;;;;;10.81;100.00;102224.38;5026685;28;20072;-69
2023/10/01 04:51:12;;;;;;;17.80;6.47;;;;;;;10.83;100.00;102221.59;5026018;28;20022;-69
2023/10/01 04:53:39;;;;;;;12.35;5.85;;;;;;;10.82;100.00;102220.72;5028242;28;20460;-70
2023/10/01 04:56:10;;;;;;;13.80;6.47;;;;;;;10.84;100.00;102228.81;5012694;28;20033;-69
2023/10/01 04:58:36;;;;;;;13.48;7.00;;;;;;;10.81;100.00;102227.09;5039327;28;20099;-69
2023/10/01 05:01:12;;;;;;;11.27;5.97;;;;;;;10.83;100.00;102225.19;5030818;28;20041;-70
2023/10/01 05:03:38;;;;;;;12.57;6.45;;;;;;;10.81;100.00;102232.53;5029968;28;20057;-69
2023/10/01 05:06:19;;;;;;;10.48;6.47;;;;;;;10.82;100.00;102230.69;5030588;28;20047;-70
2023/10/01 05:08:47;;;;;;;12.32;6.05;;;;;;;10.80;100.00;102222.63;5029094;28;20651;-70
2023/10/01 05:11:16;;;;;;;11.98;5.45;;;;;;;10.80;100.00;102227.19;5030950;28;20108;-69
2023/10/01 05:13:47;;;;;;;12.35;6.05;;;;;;;10.76;100.00;102214.69;5030567;28;20049;-69
2023/10/01 05:16:14;;;;;;;14.70;5.88;;;;;;;10.76;100.00;102222.84;5030602;28;20111;-71
2023/10/01 05:18:43;;;;;;;13.45;6.03;;;;;;;10.76;100.00;102215.56;5029076;28;20047;-69
2023/10/01 05:21:18;;;;;;;15.40;6.35;;;;;;;10.77;100.00;102216.44;5029698;28;20037;-69
2023/10/01 05:23:45;;;;;;;15.60;6.30;;;;;;;10.74;100.00;102239.28;5029141;28;20468;-69
2023/10/01 05:26:11;;;;;;;10.75;5.28;;;;;;;10.71;100.00;102239.41;5043060;28;20053;-69
2023/10/01 05:28:41;;;;;;;13.10;5.32;;;;;;;10.67;100.00;102238.69;5029623;28;20077;-69
2023/10/01 05:31:15;;;;;;;10.25;5.72;;;;;;;10.68;100.00;102240.47;5045567;28;20144;-69
2023/10/01 05:33:52;;;;;;;14.23;6.35;;;;;;;10.68;100.00;102236.88;5030193;28;20037;-68
2023/10/01 05:36:18;;;;;;;12.13;6.38;;;;;;;10.68;100.00;102245.03;5030162;28;20065;-68
2023/10/01 05:38:45;;;;;;;12.88;5.70;;;;;;;10.69;100.00;102246.81;5036576;28;20052;-68
2023/10/01 05:41:13;;;;;;;13.50;6.18;;;;;;;10.67;100.00;102245.97;5050502;28;20075;-69
2023/10/01 05:43:50;;;;;;;13.88;6.05;;;;;;;10.68;100.00;102259.53;5035822;28;20044;-69
2023/10/01 05:46:22;;;;;;;17.52;6.30;;;;;;;10.68;100.00;102258.66;5029971;28;20041;-68
2023/10/01 05:48:50;;;;;;;18.02;5.80;;;;;;;10.68;100.00;102259.53;5028415;28;20041;-69
2023/10/01 05:51:18;;;;;;;12.02;5.50;;;;;;;10.67;100.00;102255.03;5029849;28;20033;-68
2023/10/01 05:53:48;;;;;;;13.45;6.70;;;;;;;10.64;100.00;102252.47;5011588;28;20770;-69
2023/10/01 05:56:20;;;;;;;16.83;6.40;;;;;;;10.66;100.00;102242.38;5029909;28;20124;-69
2023/10/01 05:58:45;;;;;;;14.90;6.82;;;;;;;10.67;100.00;102243.25;5034854;28;20063;-69
2023/10/01 06:01:14;;;;;;;16.48;6.68;;;;;;;10.69;100.00;102241.34;5048892;28;20103;-69
2023/10/01 06:03:41;;;;;;;15.35;6.20;;;;;;;10.70;100.00;102240.38;5048185;28;20396;-69
2023/10/01 06:06:09;;;;;;;11.98;5.68;;;;;;;10.72;100.00;102249.34;5048728;28;20132;-69
2023/10/01 06:08:44;;;;;;;17.17;6.90;;;;;;;10.76;100.00;102244.63;5032632;28;20112;-69
2023/10/01 06:11:13;;;;;;;11.48;6.60;;;;;;;10.79;100.00;102248.09;5029789;28;20046;-70
2023/10/01 06:13:51;;;;;;;13.30;6.65;;;;;;;10.81;100.00;102238.00;5029332;28;20032;-69
2023/10/01 06:16:25;;;;;;;17.80;6.97;;;;;;;10.86;100.00;102232.31;5028238;28;20052;-69
2023/10/01 06:18:50;;;;;;;11.52;6.30;;;;;;;10.90;100.00;102250.25;5029176;28;20124;-69
2023/10/01 06:21:20;;;;;;;13.80;6.15;;;;;;;10.95;100.00;102245.44;5029005;28;20133;-71
2023/10/01 06:23:49;;;;;;;15.68;5.90;;;;;;;11.01;100.00;102249.72;5028893;28;20033;-68
2023/10/01 06:26:29;;;;;;;18.52;6.78;;;;;;;11.08;100.00;102254.75;5027700;28;20037;-69
2023/10/01 06:28:55;;;;;;;14.43;6.50;;;;;;;11.13;100.00;102249.94;5035773;28;20116;-69
2023/10/01 06:31:20;;;;;;;13.25;5.85;;;;;;;11.21;100.00;102255.00;5048800;28;20037;-69
2023/10/01 06:33:46;;;;;;;15.38;6.68;;;;;;;11.27;100.00;102246.50;5048535;28;20064;-71
2023/10/01 06:36:15;;;;;;;13.82;6.53;;;;;;;11.35;100.00;102249.69;5047481;28;20116;-69
2023/10/01 06:38:44;;;;;;;18.17;7.28;;;;;;;11.42;100.00;102262.06;5027789;28;20066;-69
2023/10/01 06:41:13;;;;;;;15.95;7.05;;;;;;;11.50;100.00;102251.59;5029390;28;20454;-69
2023/10/01 06:43:54;;;;;;;13.57;6.03;;;;;;;11.58;100.00;102239.41;5028880;28;20128;-69
2023/10/01 06:46:27;;;;;;;13.50;6.47;;;;;;;11.65;100.00;102238.97;5026982;28;20045;-69
2023/10/01 06:48:56;;;;;;;12.07;6.93;;;;;;;11.70;100.00;102242.38;5028808;28;20055;-69
2023/10/01 06:51:24;;;;;;;13.43;6.43;;;;;;;11.77;100.00;102242.00;5028005;28;20047;-69
2023/10/01 06:53:58;;;;;;;13.63;6.57;;;;;;;11.90;100.00;102243.13;5027835;28;20041;-70
2023/10/01 06:56:25;;;;;;;13.02;6.60;;;;;;;12.09;100.00;102238.41;5027429;28;20535;-70
2023/10/01 07:01:42;;;;;;;14.88;6.97;;;;;;;12.47;100.00;102235.31;5027487;28;20052;-69
2023/10/01 07:04:08;;;;;;;17.58;6.68;;;;;;;12.48;100.00;102224.31;5028160;28;20481;-69
2023/10/01 07:06:36;;;;;;;11.63;5.93;;;;;;;12.58;100.00;102235.56;5026630;28;20492;-71
2023/10/01 07:09:06;;;;;;;15.82;6.63;;;;;;;12.80;100.00;102240.66;5026398;28;20083;-69
2023/10/01 07:11:34;;;;;;;12.68;6.40;;;;;;;12.96;100.00;102235.13;5027465;28;20136;-68
2023/10/01 07:14:02;;;;;;;16.45;6.40;;;;;;;12.91;100.00;102234.53;5028484;28;20050;-70
2023/10/01 07:16:39;;;;;;;14.20;6.18;;;;;;;12.90;100.00;102235.50;5026582;28;20037;-69
2023/10/01 07:19:11;;;;;;;17.85;6.57;;;;;;;12.92;100.00;102233.59;5028472;28;20048;-71
2023/10/01 07:21:45;;;;;;;21.53;6.73;;;;;;;12.91;100.00;102237.25;5027771;28;20052;-69
2023/10/01 07:24:11;;;;;;;15.80;6.10;;;;;;;12.99;100.00;102237.69;5027984;28;20298;-71
2023/10/01 07:26:40;;;;;;;17.35;7.13;;;;;;;13.39;100.00;102240.75;5027528;28;20032;-70
2023/10/01 07:29:06;;;;;;;19.65;6.97;;;;;;;13.64;100.00;102240.09;5028108;28;20528;-69
2023/10/01 07:31:35;;;;;;;18.48;7.10;;;;;;;13.66;98.96;102243.59;5027301;28;20095;-70
2023/10/01 07:34:02;;;;;;;15.77;6.85;;;;;;;13.79;99.30;102250.94;5026558;28;20036;-69
2023/10/01 07:36:27;;;;;;;12.60;6.80;;;;;;;13.76;98.46;102253.88;5026239;28;20139;-69
2023/10/01 07:38:56;;;;;;;15.15;6.97;;;;;;;13.78;98.40;102251.03;5027394;28;20167;-69
2023/10/01 07:41:24;;;;;;;16.70;6.90;;;;;;;13.77;99.78;102241.97;5025833;28;20029;-70
2023/10/01 07:43:50;;;;;;;15.23;7.10;;;;;;;13.79;100.00;102239.13;5030942;28;20756;-70
2023/10/01 07:46:18;;;;;;;17.52;6.75;;;;;;;13.82;100.00;102249.00;5032543;28;20033;-71
2023/10/01 07:48:47;;;;;;;15.50;6.18;;;;;;;13.84;100.00;102252.50;5027436;28;20132;-69
2023/10/01 07:51:30;;;;;;;15.50;6.68;;;;;;;13.86;100.00;102258.78;5026713;28;20072;-72
2023/10/01 07:54:02;;;;;;;13.75;6.05;;;;;;;13.90;100.00;102263.06;5027368;28;20120;-70
2023/10/01 07:56:27;;;;;;;15.32;6.82;;;;;;;13.93;99.93;102261.00;5025654;28;20077;-70
2023/10/01 08:07:17;;;;;;;21.85;8.02;;;;;;;14.35;100.00;102258.31;5046511;28;20080;-72
2023/10/01 08:09:51;;;;;;;16.38;7.05;;;;;;;14.47;99.70;102252.03;5029389;28;20052;-70
2023/10/01 08:12:28;;;;;;;16.77;7.30;;;;;;;14.63;98.92;102255.53;5025712;28;20045;-70
2023/10/01 08:17:43;;;;;;;18.50;6.95;;;;;;;14.91;97.21;102256.41;5025879;28;20041;-71
2023/10/01 08:20:22;;;;;;;13.77;6.55;;;;;;;15.08;98.04;102269.84;5026953;28;20025;-70
2023/10/01 08:25:32;;;;;;;13.65;6.93;;;;;;;15.38;97.58;102268.69;5027111;28;20802;-69
2023/10/01 08:28:26;;;;;;;17.30;6.85;;;;;;;15.50;96.91;102268.72;5028493;28;20060;-72
2023/10/01 08:31:20;;;;;;;16.05;7.05;;;;;;;15.68;96.26;102280.28;5030325;28;20049;-71
2023/10/01 08:33:51;;;;;;;15.40;6.43;;;;;;;15.86;95.88;102274.50;5029537;28;20037;-69
2023/10/01 08:36:17;;;;;;;13.55;7.32;;;;;;;16.07;94.92;102281.16;5031340;28;20094;-68
2023/10/01 08:39:20;;;;;;;14.68;6.20;;;;;;;16.20;94.40;102278.41;5031295;28;20041;-70
2023/10/01 08:41:47;;;;;;;17.65;7.57;;;;;;;16.34;94.07;102275.50;5030360;28;20049;-70
2023/10/01 08:44:19;;;;;;;16.33;6.80;;;;;;;16.63;94.65;102276.06;5033390;28;20037;-72
2023/10/01 08:46:45;;;;;;;16.55;6.93;;;;;;;16.71;91.76;102273.63;5029179;28;20038;-69
2023/10/01 08:49:23;;;;;;;15.48;7.05;;;;;;;16.83;90.24;102277.34;5030453;28;20021;-70
2023/10/01 08:51:52;;;;;;;22.83;7.10;;;;;;;16.89;90.40;102276.03;5027760;28;20056;-70
2023/10/01 08:54:24;;;;;;;18.80;7.95;;;;;;;17.00;90.63;102274.19;5030640;28;20037;-69
2023/10/01 08:56:52;;;;;;;17.63;7.20;;;;;;;17.03;90.08;102275.84;5013001;28;20041;-70
2023/10/01 08:59:25;;;;;;;14.80;6.70;;;;;;;17.12;90.58;102282.50;5030824;28;20029;-70
2023/10/01 09:01:52;;;;;;;14.13;6.88;;;;;;;17.21;92.79;102285.41;5028831;28;20043;-70
2023/10/01 09:07:09;;;;;;;22.30;8.38;;;;;;;17.45;88.40;102284.50;5030508;28;20408;-70
2023/10/01 09:09:51;;;;;;;14.18;6.72;;;;;;;17.63;88.85;102277.53;5030340;28;20052;-70
2023/10/01 09:12:18;;;;;;;18.73;8.25;;;;;;;17.80;89.04;102273.47;5033862;28;20524;-69
2023/10/01 09:14:46;;;;;;;22.17;7.85;;;;;;;17.97;90.34;102270.22;5035263;28;20568;-70
2023/10/01 09:17:25;;;;;;;17.30;8.02;;;;;;;18.14;87.88;102274.38;5030413;28;20497;-70
2023/10/01 09:19:51;;;;;;;18.38;7.57;;;;;;;18.23;86.39;102258.94;5030819;28;20426;-70
2023/10/01 09:22:35;;;;;;;16.92;8.13;;;;;;;18.35;86.32;102263.44;5029249;28;20069;-69
2023/10/01 09:25:20;;;;;;;18.45;7.72;;;;;;;18.49;88.83;102265.94;5045822;28;20389;-70
2023/10/01 09:28:19;;;;;;;20.77;8.25;;;;;;;18.63;87.19;102259.25;5044670;28;20040;-70
2023/10/01 09:31:02;;;;;;;16.20;7.82;;;;;;;18.74;85.48;102250.97;5030546;28;20041;-70
2023/10/01 09:33:27;;;;;;;;;;;;;;;18.82;87.24;102247.59;5041834;28;20041;-70
2023/10/01 09:36:02;;;;;;;17.17;7.07;;;;;;;18.89;85.70;102239.69;5044055;28;19967;-70
2023/10/01 09:38:28;;;;;;;16.30;7.38;;;;;;;18.99;85.35;102244.28;5029697;28;20128;-69
2023/10/01 09:40:58;;;;;;;18.75;8.40;;;;;;;19.05;85.29;102245.63;5029254;28;20116;-70
2023/10/01 09:43:42;;;;;;;17.70;7.75;;;;;;;19.18;81.83;102249.06;5029713;28;20044;-71
2023/10/01 09:46:07;;;;;;;13.50;6.55;;;;;;;19.31;83.85;102248.91;5030133;28;20037;-70
2023/10/01 09:48:36;;;;;;;17.92;7.65;;;;;;;19.49;80.85;102249.13;5029476;28;20048;-71
2023/10/01 09:51:09;;;;;;;19.05;7.38;;;;;;;19.75;82.32;102253.28;5029976;28;20049;-69
2023/10/01 09:53:51;;;;;;;17.35;7.47;;;;;;;20.01;82.27;102250.94;5029530;28;20037;-69
2023/10/01 09:56:46;;;;;;;16.35;7.65;;;;;;;20.04;77.49;102250.66;5029780;28;20092;-70
2023/10/01 09:59:12;;;;;;;18.23;7.28;;;;;;;20.00;77.97;102248.31;5030350;28;20102;-70
2023/10/01 10:01:42;;;;;;;14.02;6.90;;;;;;;20.03;79.85;102243.38;5028305;28;20033;-70
2023/10/01 10:04:10;;;;;;;16.88;6.65;;;;;;;20.04;78.89;102244.25;5031920;28;20032;-70
2023/10/01 10:06:38;;;;;;;12.30;6.00;;;;;;;20.07;80.79;102244.84;5047837;28;20151;-71
2023/10/01 10:09:25;;;;;;;13.65;6.40;;;;;;;20.15;81.67;102243.31;5039098;28;20140;-70
2023/10/01 10:11:50;;;;;;;18.88;7.80;;;;;;;20.29;80.49;102248.44;5037596;28;20048;-71
2023/10/01 10:14:25;;;;;;;17.45;6.78;;;;;;;20.37;79.52;102241.16;5029742;28;20026;-70
2023/10/01 10:16:58;;;;;;;15.48;6.85;;;;;;;20.58;78.14;102237.50;5028556;28;20041;-70
2023/10/01 10:19:24;;;;;;;15.18;7.47;;;;;;;20.66;74.17;102234.91;5027716;28;20602;-70
2023/10/01 10:24:35;;;;;;;19.00;7.18;;;;;;;21.03;76.26;102240.63;5029572;28;20519;-70
2023/10/01 10:27:07;;;;;;;15.20;6.45;;;;;;;21.23;74.85;102240.59;5030366;28;20428;-71
2023/10/01 10:29:56;;;;;;;18.58;6.93;;;;;;;21.25;75.44;102239.41;5028893;28;20580;-70
2023/10/01 10:32:24;;;;;;;18.80;6.97;;;;;;;21.31;72.25;102224.13;5028155;28;20068;-71
2023/10/01 10:35:04;;;;;;;15.30;6.90;;;;;;;21.45;74.27;102226.47;5027560;28;20056;-68
2023/10/01 10:37:43;;;;;;;15.23;6.00;;;;;;;21.67;75.08;102225.25;5029006;28;20555;-70
2023/10/01 10:42:41;;;;;;;16.95;7.15;;;;;;;21.82;71.72;102229.31;5028685;28;20041;-69
2023/10/01 10:45:22;;;;;;;17.35;7.10;;;;;;;22.00;76.00;102221.03;5031703;28;20163;-71
2023/10/01 10:47:58;;;;;;;16.55;6.97;;;;;;;22.37;74.13;102221.03;5027980;28;20041;-70
2023/10/01 10:50:46;;;;;;;15.13;6.88;;;;;;;22.58;70.54;102218.00;5028501;28;20034;-69
2023/10/01 10:53:19;;;;;;;19.17;7.15;;;;;;;22.64;70.86;102217.34;5028540;28;20061;-70
2023/10/01 10:56:08;;;;;;;14.80;6.65;;;;;;;22.72;71.52;102224.03;5027158;28;20041;-69
2023/10/01 10:58:41;;;;;;;15.57;6.90;;;;;;;22.78;71.00;102212.31;5031173;28;20108;-70
2023/10/01 11:01:19;;;;;;;16.30;7.25;;;;;;;22.96;70.49;102217.91;5032277;28;20060;-71
2023/10/01 11:03:47;;;;;;;17.83;7.60;;;;;;;23.30;70.31;102216.09;5031750;28;20045;-70
2023/10/01 11:06:17;;;;;;;17.00;6.68;;;;;;;23.45;69.10;102213.63;5028014;28;20040;-73
2023/10/01 11:08:50;;;;;;;16.15;6.82;;;;;;;23.62;69.47;102217.38;5039940;28;20137;-70
2023/10/01 11:11:27;;;;;;;16.42;6.53;;;;;;;23.84;68.92;102210.44;5029662;28;20527;-70
2023/10/01 11:14:00;;;;;;;14.07;7.00;;;;;;;24.05;64.01;102215.59;5028875;28;20040;-70
2023/10/01 11:16:39;;;;;;;14.68;6.40;;;;;;;24.09;65.40;102212.31;5027900;28;20090;-70
2023/10/01 11:19:12;;;;;;;15.80;6.60;;;;;;;24.14;64.93;102211.81;5028280;28;20037;-71
2023/10/01 11:21:58;;;;;;;14.70;6.68;;;;;;;24.27;66.90;102200.22;5037765;28;20116;-70
2023/10/01 11:24:34;;;;;;;13.50;6.68;;;;;;;24.51;64.17;102196.69;5027619;28;20459;-70
2023/10/01 11:27:25;;;;;;;18.92;7.30;;;;;;;24.48;63.62;102192.34;5027608;28;20047;-72
2023/10/01 11:30:15;;;;;;;16.63;7.20;;;;;;;24.46;64.00;102191.63;5033203;28;20048;-70
2023/10/01 11:35:33;;;;;;;13.65;6.55;;;;;;;24.37;62.13;102178.72;5027959;28;20495;-70
2023/10/01 11:38:00;;;;;;;12.20;6.70;;;;;;;24.46;62.07;102182.41;5030369;28;20032;-71
2023/10/01 11:43:23;;;;;;;19.40;7.18;;;;;;;24.73;61.29;102178.47;5026833;28;20075;-71
2023/10/01 11:46:23;;;;;;;18.15;6.82;;;;;;;24.89;64.42;102181.25;5027635;28;20116;-72
2023/10/01 11:48:57;;;;;;;14.60;6.88;;;;;;;24.91;60.85;102185.63;5026048;28;20130;-71
2023/10/01 11:51:30;;;;;;;16.33;6.65;;;;;;;25.05;61.74;102175.72;5026541;28;20091;-71
2023/10/01 11:54:09;;;;;;;19.52;7.60;;;;;;;25.07;58.94;102168.06;5027395;28;20049;-70
2023/10/01 11:56:47;;;;;;;15.40;7.13;;;;;;;25.18;61.97;102176.09;5026833;28;20049;-70
2023/10/01 11:59:19;;;;;;;19.90;6.70;;;;;;;25.35;60.56;102168.56;5038276;28;20064;-71
2023/10/01 12:01:47;;;;;;;15.05;6.63;;;;;;;25.26;59.51;102163.19;5041930;28;20497;-72
2023/10/01 12:04:43;;;;;;;18.48;7.18;;;;;;;25.34;60.03;102163.19;5027637;28;20061;-69
2023/10/01 12:07:16;;;;;;;16.55;8.07;;;;;;;25.35;57.76;102149.06;5026508;28;20057;-71
2023/10/01 12:09:48;;;;;;;15.68;7.40;;;;;;;25.33;59.22;102153.09;5027767;28;20051;-72
2023/10/01 12:12:28;;;;;;;17.10;7.75;;;;;;;25.41;58.23;102156.75;5030387;28;20068;-73
2023/10/01 12:15:33;;;;;;;14.38;7.18;;;;;;;25.41;58.88;102153.97;5026299;28;20051;-69
2023/10/01 12:17:44;;;;;;;17.40;7.80;;;;;;;25.39;56.64;102146.81;5029631;28;20088;-68